sensor_id;sensor_type;location;lat;lon;timestamp;pressure;altitude;pressure_sealevel;temperature;humidity
68986;BME280;56035;37.534;-122.308;2023-04-15T00:01:48;101344.84;;;13.13;100.00
68986;BME280;56035;37.534;-122.308;2023-04-15T00:04:14;101339.31;;;13.13;100.00
68986;BME280;56035;37.534;-122.308;2023-04-15T00:06:40;101343.53;;;13.16;100.00
68986;BME280;56035;37.534;-122.308;2023-04-15T00:09:06;101346.03;;;13.17;100.00
68986;BME280;56035;37.534;-122.308;2023-04-15T00:11:32;101342.91;;;13.13;100.00
68986;BME280;56035;37.534;-122.308;2023-04-15T00:13:59;101340.63;;;13.10;100.00
68986;BME280;56035;37.534;-122.308;2023-04-15T00:16:25;101338.47;;;13.12;100.00
68986;BME280;56035;37.534;-122.308;2023-04-15T00:18:52;101336.94;;;13.05;100.00
68986;BME280;56035;37.534;-122.308;2023-04-15T00:21:19;101340.69;;;12.99;100.00
68986;BME280;56035;37.534;-122.308;2023-04-15T00:23:45;101340.56;;;12.94;100.00
68986;BME280;56035;37.534;-122.308;2023-04-15T00:26:17;101333.94;;;12.95;100.00
68986;BME280;56035;37.534;-122.308;2023-04-15T00:28:44;101340.22;;;12.90;100.00
68986;BME280;56035;37.534;-122.308;2023-04-15T00:31:10;101337.47;;;12.78;100.00
68986;BME280;56035;37.534;-122.308;2023-04-15T00:33:36;101338.69;;;12.71;100.00
68986;BME280;56035;37.534;-122.308;2023-04-15T00:36:03;101340.84;;;12.69;100.00
68986;BME280;56035;37.534;-122.308;2023-04-15T00:38:30;101335.44;;;12.62;100.00
68986;BME280;56035;37.534;-122.308;2023-04-15T00:40:56;101336.78;;;12.59;100.00
68986;BME280;56035;37.534;-122.308;2023-04-15T00:43:23;101343.50;;;12.52;100.00
68986;BME280;56035;37.534;-122.308;2023-04-15T00:45:51;101339.78;;;12.46;100.00
68986;BME280;56035;37.534;-122.308;2023-04-15T00:48:19;101345.69;;;12.50;100.00
68986;BME280;56035;37.534;-122.308;2023-04-15T00:50:45;101336.69;;;12.43;100.00
68986;BME280;56035;37.534;-122.308;2023-04-15T00:53:11;101337.75;;;12.41;100.00
68986;BME280;56035;37.534;-122.308;2023-04-15T00:55:37;101342.19;;;12.31;100.00
68986;BME280;56035;37.534;-122.308;2023-04-15T00:58:04;101348.66;;;12.25;100.00
68986;BME280;56035;37.534;-122.308;2023-04-15T01:00:31;101343.16;;;12.25;100.00
68986;BME280;56035;37.534;-122.308;2023-04-15T01:02:57;101350.47;;;12.19;100.00
68986;BME280;56035;37.534;-122.308;2023-04-15T01:05:23;101345.03;;;12.12;100.00
68986;BME280;56035;37.534;-122.308;2023-04-15T01:07:52;101342.16;;;12.07;100.00
68986;BME280;56035;37.534;-122.308;2023-04-15T01:10:18;101337.47;;;11.96;100.00
68986;BME280;56035;37.534;-122.308;2023-04-15T01:12:44;101345.63;;;11.91;100.00
68986;BME280;56035;37.534;-122.308;2023-04-15T01:15:10;101341.47;;;11.82;100.00
68986;BME280;56035;37.534;-122.308;2023-04-15T01:17:38;101348.56;;;11.78;100.00
68986;BME280;56035;37.534;-122.308;2023-04-15T01:20:05;101336.75;;;11.70;100.00
68986;BME280;56035;37.534;-122.308;2023-04-15T01:22:34;101340.25;;;11.66;100.00
68986;BME280;56035;37.534;-122.308;2023-04-15T01:25:05;101349.69;;;11.58;100.00
68986;BME280;56035;37.534;-122.308;2023-04-15T01:27:33;101350.25;;;11.48;100.00
68986;BME280;56035;37.534;-122.308;2023-04-15T01:30:01;101357.56;;;11.43;100.00
68986;BME280;56035;37.534;-122.308;2023-04-15T01:32:30;101356.81;;;11.36;100.00
68986;BME280;56035;37.534;-122.308;2023-04-15T01:34:56;101363.41;;;11.35;100.00
68986;BME280;56035;37.534;-122.308;2023-04-15T01:37:23;101365.00;;;11.24;100.00
68986;BME280;56035;37.534;-122.308;2023-04-15T01:39:49;101360.28;;;11.13;100.00
68986;BME280;56035;37.534;-122.308;2023-04-15T01:42:16;101361.66;;;11.04;100.00
68986;BME280;56035;37.534;-122.308;2023-04-15T01:44:42;101366.78;;;11.00;100.00
68986;BME280;56035;37.534;-122.308;2023-04-15T01:47:08;101370.47;;;10.94;100.00
68986;BME280;56035;37.534;-122.308;2023-04-15T01:49:35;101379.06;;;10.86;100.00
68986;BME280;56035;37.534;-122.308;2023-04-15T01:52:01;101372.38;;;10.75;100.00
68986;BME280;56035;37.534;-122.308;2023-04-15T01:54:28;101374.16;;;10.69;100.00
68986;BME280;56035;37.534;-122.308;2023-04-15T01:56:54;101385.00;;;10.64;100.00
68986;BME280;56035;37.534;-122.308;2023-04-15T01:59:21;101381.22;;;10.59;100.00
68986;BME280;56035;37.534;-122.308;2023-04-15T02:01:47;101387.44;;;10.54;100.00
68986;BME280;56035;37.534;-122.308;2023-04-15T02:04:14;101392.16;;;10.47;100.00
68986;BME280;56035;37.534;-122.308;2023-04-15T02:06:43;101396.88;;;10.40;100.00
68986;BME280;56035;37.534;-122.308;2023-04-15T02:09:09;101397.63;;;10.28;100.00
68986;BME280;56035;37.534;-122.308;2023-04-15T02:11:36;101400.16;;;10.23;100.00
68986;BME280;56035;37.534;-122.308;2023-04-15T02:14:02;101400.44;;;10.15;100.00
68986;BME280;56035;37.534;-122.308;2023-04-15T02:16:31;101407.09;;;10.07;100.00
68986;BME280;56035;37.534;-122.308;2023-04-15T02:18:59;101409.44;;;10.04;100.00
68986;BME280;56035;37.534;-122.308;2023-04-15T02:21:26;101410.09;;;9.99;100.00
68986;BME280;56035;37.534;-122.308;2023-04-15T02:23:52;101424.75;;;9.93;100.00
68986;BME280;56035;37.534;-122.308;2023-04-15T02:26:22;101428.22;;;9.82;100.00
68986;BME280;56035;37.534;-122.308;2023-04-15T02:28:49;101434.78;;;9.74;100.00
68986;BME280;56035;37.534;-122.308;2023-04-15T02:31:19;101437.59;;;9.68;100.00
68986;BME280;56035;37.534;-122.308;2023-04-15T02:33:46;101439.31;;;9.62;100.00
68986;BME280;56035;37.534;-122.308;2023-04-15T02:36:12;101439.78;;;9.52;100.00
68986;BME280;56035;37.534;-122.308;2023-04-15T02:38:39;101447.22;;;9.52;100.00
68986;BME280;56035;37.534;-122.308;2023-04-15T02:41:07;101447.44;;;9.44;100.00
68986;BME280;56035;37.534;-122.308;2023-04-15T02:43:34;101447.69;;;9.35;100.00
68986;BME280;56035;37.534;-122.308;2023-04-15T02:46:00;101456.81;;;9.29;100.00
68986;BME280;56035;37.534;-122.308;2023-04-15T02:48:26;101454.09;;;9.23;100.00
68986;BME280;56035;37.534;-122.308;2023-04-15T02:50:53;101459.81;;;9.14;100.00
68986;BME280;56035;37.534;-122.308;2023-04-15T02:53:19;101457.91;;;9.08;100.00
68986;BME280;56035;37.534;-122.308;2023-04-15T02:55:46;101468.72;;;9.03;100.00
68986;BME280;56035;37.534;-122.308;2023-04-15T02:58:12;101467.91;;;8.96;100.00
68986;BME280;56035;37.534;-122.308;2023-04-15T03:00:38;101472.94;;;8.93;100.00
68986;BME280;56035;37.534;-122.308;2023-04-15T03:03:05;101476.34;;;8.88;100.00
68986;BME280;56035;37.534;-122.308;2023-04-15T03:05:31;101473.63;;;8.81;100.00
68986;BME280;56035;37.534;-122.308;2023-04-15T03:07:57;101483.53;;;8.76;100.00
68986;BME280;56035;37.534;-122.308;2023-04-15T03:10:25;101481.22;;;8.73;100.00
68986;BME280;56035;37.534;-122.308;2023-04-15T03:12:51;101497.28;;;8.69;100.00
68986;BME280;56035;37.534;-122.308;2023-04-15T03:15:18;101497.69;;;8.66;100.00
68986;BME280;56035;37.534;-122.308;2023-04-15T03:17:44;101508.69;;;8.59;100.00
68986;BME280;56035;37.534;-122.308;2023-04-15T03:20:11;101505.75;;;8.54;100.00
68986;BME280;56035;37.534;-122.308;2023-04-15T03:22:37;101513.34;;;8.52;100.00
68986;BME280;56035;37.534;-122.308;2023-04-15T03:25:03;101516.50;;;8.49;100.00
68986;BME280;56035;37.534;-122.308;2023-04-15T03:27:29;101524.53;;;8.44;100.00
68986;BME280;56035;37.534;-122.308;2023-04-15T03:29:56;101525.16;;;8.39;100.00
68986;BME280;56035;37.534;-122.308;2023-04-15T03:32:43;101531.66;;;8.32;100.00
68986;BME280;56035;37.534;-122.308;2023-04-15T03:35:09;101528.69;;;8.27;100.00
68986;BME280;56035;37.534;-122.308;2023-04-15T03:37:35;101540.97;;;8.24;100.00
68986;BME280;56035;37.534;-122.308;2023-04-15T03:40:01;101542.22;;;8.21;100.00
68986;BME280;56035;37.534;-122.308;2023-04-15T03:42:28;101549.63;;;8.28;100.00
68986;BME280;56035;37.534;-122.308;2023-04-15T03:44:54;101551.06;;;8.24;100.00
68986;BME280;56035;37.534;-122.308;2023-04-15T03:47:20;101551.06;;;8.30;100.00
68986;BME280;56035;37.534;-122.308;2023-04-15T03:49:46;101565.25;;;8.34;100.00
68986;BME280;56035;37.534;-122.308;2023-04-15T03:52:13;101566.28;;;8.33;100.00
68986;BME280;56035;37.534;-122.308;2023-04-15T03:54:39;101565.88;;;8.29;100.00
68986;BME280;56035;37.534;-122.308;2023-04-15T03:57:05;101570.94;;;8.32;100.00
68986;BME280;56035;37.534;-122.308;2023-04-15T03:59:31;101574.94;;;8.30;100.00
68986;BME280;56035;37.534;-122.308;2023-04-15T04:01:58;101579.59;;;8.29;100.00
68986;BME280;56035;37.534;-122.308;2023-04-15T04:04:24;101583.59;;;8.27;100.00
68986;BME280;56035;37.534;-122.308;2023-04-15T04:06:50;101587.81;;;8.23;100.00
68986;BME280;56035;37.534;-122.308;2023-04-15T04:09:16;101599.00;;;8.21;100.00
68986;BME280;56035;37.534;-122.308;2023-04-15T04:11:43;101606.19;;;8.22;100.00
68986;BME280;56035;37.534;-122.308;2023-04-15T04:14:09;101599.63;;;8.16;100.00
68986;BME280;56035;37.534;-122.308;2023-04-15T04:16:36;101606.34;;;8.14;100.00
68986;BME280;56035;37.534;-122.308;2023-04-15T04:19:02;101604.25;;;8.16;100.00
68986;BME280;56035;37.534;-122.308;2023-04-15T04:21:28;101614.84;;;8.19;100.00
68986;BME280;56035;37.534;-122.308;2023-04-15T04:23:55;101617.16;;;8.15;100.00
68986;BME280;56035;37.534;-122.308;2023-04-15T04:26:21;101618.41;;;8.13;100.00
68986;BME280;56035;37.534;-122.308;2023-04-15T04:28:47;101623.69;;;8.14;100.00
68986;BME280;56035;37.534;-122.308;2023-04-15T04:31:14;101631.69;;;8.09;100.00
68986;BME280;56035;37.534;-122.308;2023-04-15T04:33:40;101630.41;;;8.05;100.00
68986;BME280;56035;37.534;-122.308;2023-04-15T04:36:06;101620.69;;;8.03;100.00
68986;BME280;56035;37.534;-122.308;2023-04-15T04:38:32;101636.94;;;8.04;100.00
68986;BME280;56035;37.534;-122.308;2023-04-15T04:40:59;101631.00;;;8.01;100.00
68986;BME280;56035;37.534;-122.308;2023-04-15T04:43:25;101636.72;;;7.99;100.00
68986;BME280;56035;37.534;-122.308;2023-04-15T04:45:52;101643.88;;;8.00;100.00
68986;BME280;56035;37.534;-122.308;2023-04-15T04:48:18;101641.34;;;7.98;100.00
68986;BME280;56035;37.534;-122.308;2023-04-15T04:50:44;101652.50;;;7.97;100.00
68986;BME280;56035;37.534;-122.308;2023-04-15T04:53:11;101657.38;;;7.95;100.00
68986;BME280;56035;37.534;-122.308;2023-04-15T04:55:37;101654.22;;;7.98;100.00
68986;BME280;56035;37.534;-122.308;2023-04-15T04:58:03;101656.97;;;7.98;100.00
68986;BME280;56035;37.534;-122.308;2023-04-15T05:00:30;101659.50;;;8.00;100.00
68986;BME280;56035;37.534;-122.308;2023-04-15T05:02:56;101661.00;;;8.02;100.00
68986;BME280;56035;37.534;-122.308;2023-04-15T05:05:23;101665.03;;;8.06;100.00
68986;BME280;56035;37.534;-122.308;2023-04-15T05:07:49;101659.56;;;8.13;100.00
68986;BME280;56035;37.534;-122.308;2023-04-15T05:10:16;101665.91;;;8.13;100.00
68986;BME280;56035;37.534;-122.308;2023-04-15T05:12:43;101668.63;;;8.13;100.00
68986;BME280;56035;37.534;-122.308;2023-04-15T05:15:09;101670.09;;;8.09;100.00
68986;BME280;56035;37.534;-122.308;2023-04-15T05:17:36;101671.34;;;8.07;100.00
68986;BME280;56035;37.534;-122.308;2023-04-15T05:20:02;101670.91;;;8.03;100.00
68986;BME280;56035;37.534;-122.308;2023-04-15T05:22:29;101666.88;;;7.99;100.00
68986;BME280;56035;37.534;-122.308;2023-04-15T05:24:55;101669.84;;;8.04;100.00
68986;BME280;56035;37.534;-122.308;2023-04-15T05:27:21;101670.91;;;8.03;100.00
68986;BME280;56035;37.534;-122.308;2023-04-15T05:29:48;101669.22;;;8.02;100.00
68986;BME280;56035;37.534;-122.308;2023-04-15T05:32:14;101666.22;;;7.97;100.00
68986;BME280;56035;37.534;-122.308;2023-04-15T05:34:40;101673.84;;;7.95;100.00
68986;BME280;56035;37.534;-122.308;2023-04-15T05:37:07;101672.53;;;7.91;100.00
68986;BME280;56035;37.534;-122.308;2023-04-15T05:39:33;101672.09;;;7.87;100.00
68986;BME280;56035;37.534;-122.308;2023-04-15T05:41:59;101673.56;;;7.83;100.00
68986;BME280;56035;37.534;-122.308;2023-04-15T05:44:25;101679.44;;;7.80;100.00
68986;BME280;56035;37.534;-122.308;2023-04-15T05:46:51;101685.53;;;7.76;100.00
68986;BME280;56035;37.534;-122.308;2023-04-15T05:49:18;101679.56;;;7.65;100.00
68986;BME280;56035;37.534;-122.308;2023-04-15T05:51:45;101686.47;;;7.61;100.00
68986;BME280;56035;37.534;-122.308;2023-04-15T05:54:12;101676.31;;;7.55;100.00
68986;BME280;56035;37.534;-122.308;2023-04-15T05:56:38;101682.78;;;7.47;100.00
68986;BME280;56035;37.534;-122.308;2023-04-15T05:59:04;101682.75;;;7.41;100.00
68986;BME280;56035;37.534;-122.308;2023-04-15T06:01:32;101682.69;;;7.34;100.00
68986;BME280;56035;37.534;-122.308;2023-04-15T06:03:59;101700.59;;;7.30;100.00
68986;BME280;56035;37.534;-122.308;2023-04-15T06:06:25;101699.69;;;7.23;100.00
68986;BME280;56035;37.534;-122.308;2023-04-15T06:08:52;101694.78;;;7.18;100.00
68986;BME280;56035;37.534;-122.308;2023-04-15T06:11:20;101687.56;;;7.11;100.00
68986;BME280;56035;37.534;-122.308;2023-04-15T06:13:46;101695.50;;;7.06;100.00
68986;BME280;56035;37.534;-122.308;2023-04-15T06:16:13;101689.97;;;6.99;100.00
68986;BME280;56035;37.534;-122.308;2023-04-15T06:18:39;101692.06;;;6.97;100.00
68986;BME280;56035;37.534;-122.308;2023-04-15T06:21:05;101693.88;;;6.90;100.00
68986;BME280;56035;37.534;-122.308;2023-04-15T06:23:34;101687.31;;;6.84;100.00
68986;BME280;56035;37.534;-122.308;2023-04-15T06:26:01;101695.06;;;6.80;100.00
68986;BME280;56035;37.534;-122.308;2023-04-15T06:28:28;101697.13;;;6.78;100.00
68986;BME280;56035;37.534;-122.308;2023-04-15T06:30:54;101708.09;;;6.78;100.00
68986;BME280;56035;37.534;-122.308;2023-04-15T06:33:20;101706.94;;;6.88;100.00
68986;BME280;56035;37.534;-122.308;2023-04-15T06:35:47;101703.41;;;6.94;100.00
68986;BME280;56035;37.534;-122.308;2023-04-15T06:38:14;101701.38;;;7.02;100.00
68986;BME280;56035;37.534;-122.308;2023-04-15T06:40:40;101708.47;;;7.18;100.00
68986;BME280;56035;37.534;-122.308;2023-04-15T06:43:07;101706.41;;;7.20;100.00
68986;BME280;56035;37.534;-122.308;2023-04-15T06:45:34;101706.25;;;7.28;100.00
68986;BME280;56035;37.534;-122.308;2023-04-15T06:48:00;101697.06;;;7.36;100.00
68986;BME280;56035;37.534;-122.308;2023-04-15T06:50:26;101714.41;;;7.43;100.00
68986;BME280;56035;37.534;-122.308;2023-04-15T06:52:55;101721.56;;;7.44;100.00
68986;BME280;56035;37.534;-122.308;2023-04-15T06:55:22;101716.09;;;7.44;100.00
68986;BME280;56035;37.534;-122.308;2023-04-15T06:57:48;101718.25;;;7.49;100.00
68986;BME280;56035;37.534;-122.308;2023-04-15T07:00:14;101716.53;;;7.48;100.00
68986;BME280;56035;37.534;-122.308;2023-04-15T07:02:41;101710.09;;;7.56;100.00
68986;BME280;56035;37.534;-122.308;2023-04-15T07:05:07;101714.56;;;7.63;100.00
68986;BME280;56035;37.534;-122.308;2023-04-15T07:07:34;101718.81;;;7.66;100.00
68986;BME280;56035;37.534;-122.308;2023-04-15T07:10:01;101711.66;;;7.71;100.00
68986;BME280;56035;37.534;-122.308;2023-04-15T07:12:27;101712.13;;;7.75;100.00
68986;BME280;56035;37.534;-122.308;2023-04-15T07:14:54;101714.44;;;7.78;100.00
68986;BME280;56035;37.534;-122.308;2023-04-15T07:17:20;101714.91;;;7.82;100.00
68986;BME280;56035;37.534;-122.308;2023-04-15T07:19:46;101719.78;;;7.86;100.00
68986;BME280;56035;37.534;-122.308;2023-04-15T07:22:13;101714.75;;;7.90;100.00
68986;BME280;56035;37.534;-122.308;2023-04-15T07:24:39;101716.03;;;7.94;100.00
68986;BME280;56035;37.534;-122.308;2023-04-15T07:27:05;101718.19;;;7.98;100.00
68986;BME280;56035;37.534;-122.308;2023-04-15T07:29:32;101724.97;;;8.03;100.00
68986;BME280;56035;37.534;-122.308;2023-04-15T07:31:58;101726.47;;;8.05;100.00
68986;BME280;56035;37.534;-122.308;2023-04-15T07:34:24;101737.66;;;8.10;100.00
68986;BME280;56035;37.534;-122.308;2023-04-15T07:36:50;101723.53;;;8.13;100.00
68986;BME280;56035;37.534;-122.308;2023-04-15T07:39:17;101722.28;;;8.16;100.00
68986;BME280;56035;37.534;-122.308;2023-04-15T07:42:03;101716.63;;;8.17;100.00
68986;BME280;56035;37.534;-122.308;2023-04-15T07:44:30;101726.31;;;8.20;100.00
68986;BME280;56035;37.534;-122.308;2023-04-15T07:46:56;101729.50;;;8.24;100.00
68986;BME280;56035;37.534;-122.308;2023-04-15T07:49:22;101732.91;;;8.26;100.00
68986;BME280;56035;37.534;-122.308;2023-04-15T07:51:49;101734.81;;;8.25;100.00
68986;BME280;56035;37.534;-122.308;2023-04-15T07:54:15;101733.56;;;8.28;100.00
68986;BME280;56035;37.534;-122.308;2023-04-15T07:56:42;101730.81;;;8.28;100.00
68986;BME280;56035;37.534;-122.308;2023-04-15T07:59:08;101727.84;;;8.29;100.00
68986;BME280;56035;37.534;-122.308;2023-04-15T08:01:35;101722.34;;;8.29;100.00
68986;BME280;56035;37.534;-122.308;2023-04-15T08:04:01;101722.59;;;8.34;100.00
68986;BME280;56035;37.534;-122.308;2023-04-15T08:06:28;101725.97;;;8.36;100.00
68986;BME280;56035;37.534;-122.308;2023-04-15T08:08:54;101726.44;;;8.40;100.00
68986;BME280;56035;37.534;-122.308;2023-04-15T08:11:20;101723.69;;;8.40;100.00
68986;BME280;56035;37.534;-122.308;2023-04-15T08:13:48;101722.66;;;8.41;100.00
68986;BME280;56035;37.534;-122.308;2023-04-15T08:18:44;101729.00;;;8.41;100.00
68986;BME280;56035;37.534;-122.308;2023-04-15T08:21:11;101724.75;;;8.39;100.00
68986;BME280;56035;37.534;-122.308;2023-04-15T08:23:38;101734.94;;;8.45;100.00
68986;BME280;56035;37.534;-122.308;2023-04-15T08:26:04;101738.31;;;8.47;100.00
68986;BME280;56035;37.534;-122.308;2023-04-15T08:28:31;101736.84;;;8.44;100.00
68986;BME280;56035;37.534;-122.308;2023-04-15T08:30:57;101728.78;;;8.43;100.00
68986;BME280;56035;37.534;-122.308;2023-04-15T08:33:24;101731.53;;;8.43;100.00
68986;BME280;56035;37.534;-122.308;2023-04-15T08:35:50;101728.78;;;8.43;100.00
68986;BME280;56035;37.534;-122.308;2023-04-15T08:38:17;101734.09;;;8.44;100.00
68986;BME280;56035;37.534;-122.308;2023-04-15T08:40:44;101731.34;;;8.44;100.00
68986;BME280;56035;37.534;-122.308;2023-04-15T08:43:34;101735.38;;;8.49;100.00
68986;BME280;56035;37.534;-122.308;2023-04-15T08:46:01;101730.72;;;8.49;100.00
68986;BME280;56035;37.534;-122.308;2023-04-15T08:48:31;101735.38;;;8.49;100.00
68986;BME280;56035;37.534;-122.308;2023-04-15T08:51:00;101734.09;;;8.44;100.00
68986;BME280;56035;37.534;-122.308;2023-04-15T08:53:28;101741.91;;;8.48;100.00
68986;BME280;56035;37.534;-122.308;2023-04-15T08:55:56;101734.53;;;8.48;100.00
68986;BME280;56035;37.534;-122.308;2023-04-15T08:58:24;101740.00;;;8.48;100.00
68986;BME280;56035;37.534;-122.308;2023-04-15T09:00:50;101733.69;;;8.48;100.00
68986;BME280;56035;37.534;-122.308;2023-04-15T09:03:17;101739.16;;;8.48;100.00
68986;BME280;56035;37.534;-122.308;2023-04-15T09:05:44;101734.94;;;8.45;100.00
68986;BME280;56035;37.534;-122.308;2023-04-15T09:08:10;101732.38;;;8.43;100.00
68986;BME280;56035;37.534;-122.308;2023-04-15T09:10:37;101731.97;;;8.47;100.00
68986;BME280;56035;37.534;-122.308;2023-04-15T09:13:03;101730.28;;;8.46;100.00
68986;BME280;56035;37.534;-122.308;2023-04-15T09:15:30;101732.63;;;8.49;100.00
68986;BME280;56035;37.534;-122.308;2023-04-15T09:17:57;101733.88;;;8.46;100.00
68986;BME280;56035;37.534;-122.308;2023-04-15T09:20:24;101726.03;;;8.43;100.00
68986;BME280;56035;37.534;-122.308;2023-04-15T09:22:51;101727.31;;;8.40;100.00
68986;BME280;56035;37.534;-122.308;2023-04-15T09:27:50;101723.91;;;8.38;100.00
68986;BME280;56035;37.534;-122.308;2023-04-15T09:30:17;101727.31;;;8.40;100.00
68986;BME280;56035;37.534;-122.308;2023-04-15T09:35:19;101725.59;;;8.39;100.00
68986;BME280;56035;37.534;-122.308;2023-04-15T09:37:50;101727.69;;;8.37;100.00
68986;BME280;56035;37.534;-122.308;2023-04-15T09:43:03;101722.19;;;8.37;100.00
68986;BME280;56035;37.534;-122.308;2023-04-15T09:45:30;101721.50;;;8.29;100.00
68986;BME280;56035;37.534;-122.308;2023-04-15T09:47:59;101717.53;;;8.31;100.00
68986;BME280;56035;37.534;-122.308;2023-04-15T09:50:28;101724.03;;;8.30;100.00
68986;BME280;56035;37.534;-122.308;2023-04-15T09:55:44;101718.34;;;8.32;100.00
68986;BME280;56035;37.534;-122.308;2023-04-15T09:58:24;101722.16;;;8.31;100.00
68986;BME280;56035;37.534;-122.308;2023-04-15T10:00:53;101721.28;;;8.30;100.00
68986;BME280;56035;37.534;-122.308;2023-04-15T10:03:23;101722.16;;;8.31;100.00
68986;BME280;56035;37.534;-122.308;2023-04-15T10:05:51;101730.81;;;8.28;100.00
68986;BME280;56035;37.534;-122.308;2023-04-15T10:08:20;101733.56;;;8.28;100.00
68986;BME280;56035;37.534;-122.308;2023-04-15T10:10:47;101734.41;;;8.28;100.00
68986;BME280;56035;37.534;-122.308;2023-04-15T10:13:19;101736.88;;;8.23;100.00
68986;BME280;56035;37.534;-122.308;2023-04-15T10:16:15;101730.97;;;8.19;100.00
68986;BME280;56035;37.534;-122.308;2023-04-15T10:18:43;101736.69;;;8.25;100.00
68986;BME280;56035;37.534;-122.308;2023-04-15T10:21:10;101729.94;;;8.27;100.00
68986;BME280;56035;37.534;-122.308;2023-04-15T10:23:38;101736.31;;;8.28;100.00
68986;BME280;56035;37.534;-122.308;2023-04-15T10:26:05;101743.66;;;8.27;100.00
68986;BME280;56035;37.534;-122.308;2023-04-15T10:28:31;101743.03;;;8.25;100.00
68986;BME280;56035;37.534;-122.308;2023-04-15T10:30:58;101739.88;;;8.28;100.00
68986;BME280;56035;37.534;-122.308;2023-04-15T10:33:24;101739.88;;;8.28;100.00
68986;BME280;56035;37.534;-122.308;2023-04-15T10:35:52;101734.81;;;8.25;100.00
68986;BME280;56035;37.534;-122.308;2023-04-15T10:38:39;101734.16;;;8.23;100.00
68986;BME280;56035;37.534;-122.308;2023-04-15T10:41:22;101725.91;;;8.23;100.00
68986;BME280;56035;37.534;-122.308;2023-04-15T10:51:44;101734.16;;;8.23;100.00
68986;BME280;56035;37.534;-122.308;2023-04-15T10:54:30;101720.22;;;8.25;100.00
68986;BME280;56035;37.534;-122.308;2023-04-15T11:05:13;101722.34;;;8.29;100.00
68986;BME280;56035;37.534;-122.308;2023-04-15T11:07:50;101725.75;;;8.31;100.00
68986;BME280;56035;37.534;-122.308;2023-04-15T11:12:55;101736.94;;;8.30;100.00
68986;BME280;56035;37.534;-122.308;2023-04-15T11:15:31;101746.22;;;8.29;100.00
68986;BME280;56035;37.534;-122.308;2023-04-15T11:18:08;101757.00;;;8.30;100.00
68986;BME280;56035;37.534;-122.308;2023-04-15T11:20:36;101747.03;;;8.23;100.00
68986;BME280;56035;37.534;-122.308;2023-04-15T11:23:03;101754.66;;;8.27;100.00
68986;BME280;56035;37.534;-122.308;2023-04-15T11:25:31;101746.22;;;8.29;100.00
68986;BME280;56035;37.534;-122.308;2023-04-15T11:27:59;101756.16;;;8.30;100.00
68986;BME280;56035;37.534;-122.308;2023-04-15T11:30:29;101756.16;;;8.30;100.00
68986;BME280;56035;37.534;-122.308;2023-04-15T11:32:59;101759.53;;;8.32;100.00
68986;BME280;56035;37.534;-122.308;2023-04-15T11:35:25;101767.13;;;8.30;100.00
68986;BME280;56035;37.534;-122.308;2023-04-15T11:37:52;101763.53;;;8.29;100.00
68986;BME280;56035;37.534;-122.308;2023-04-15T11:40:25;101767.53;;;8.27;100.00
68986;BME280;56035;37.534;-122.308;2023-04-15T11:45:30;101770.72;;;8.30;100.00
68986;BME280;56035;37.534;-122.308;2023-04-15T11:48:09;101770.31;;;8.33;100.00
68986;BME280;56035;37.534;-122.308;2023-04-15T11:50:37;101781.69;;;8.30;100.00
68986;BME280;56035;37.534;-122.308;2023-04-15T11:53:07;101772.00;;;8.28;100.00
68986;BME280;56035;37.534;-122.308;2023-04-15T11:55:48;101769.44;;;8.26;100.00
68986;BME280;56035;37.534;-122.308;2023-04-15T11:58:18;101778.31;;;8.28;100.00
68986;BME280;56035;37.534;-122.308;2023-04-15T12:03:17;101771.59;;;8.31;100.00
68986;BME280;56035;37.534;-122.308;2023-04-15T12:06:09;101767.78;;;8.32;100.00
68986;BME280;56035;37.534;-122.308;2023-04-15T12:08:56;101762.47;;;8.30;100.00
68986;BME280;56035;37.534;-122.308;2023-04-15T12:14:03;101769.44;;;8.26;100.00
68986;BME280;56035;37.534;-122.308;2023-04-15T12:16:30;101769.84;;;8.23;100.00
68986;BME280;56035;37.534;-122.308;2023-04-15T12:18:58;101767.88;;;8.17;100.00
68986;BME280;56035;37.534;-122.308;2023-04-15T12:21:26;101767.72;;;8.18;100.00
68986;BME280;56035;37.534;-122.308;2023-04-15T12:24:00;101771.06;;;8.20;100.00
68986;BME280;56035;37.534;-122.308;2023-04-15T12:26:29;101765.59;;;8.20;100.00
68986;BME280;56035;37.534;-122.308;2023-04-15T12:29:07;101766.03;;;8.17;100.00
68986;BME280;56035;37.534;-122.308;2023-04-15T12:31:36;101775.09;;;8.18;100.00
68986;BME280;56035;37.534;-122.308;2023-04-15T12:34:13;101781.19;;;8.13;100.00
68986;BME280;56035;37.534;-122.308;2023-04-15T12:36:40;101776.13;;;8.17;100.00
68986;BME280;56035;37.534;-122.308;2023-04-15T12:39:07;101774.66;;;8.14;100.00
68986;BME280;56035;37.534;-122.308;2023-04-15T12:41:33;101771.91;;;8.14;100.00
68986;BME280;56035;37.534;-122.308;2023-04-15T12:43:59;101771.66;;;8.09;100.00
68986;BME280;56035;37.534;-122.308;2023-04-15T12:46:26;101777.16;;;8.09;100.00
68986;BME280;56035;37.534;-122.308;2023-04-15T12:48:52;101789.41;;;8.13;100.00
68986;BME280;56035;37.534;-122.308;2023-04-15T12:51:19;101791.31;;;8.13;100.00
68986;BME280;56035;37.534;-122.308;2023-04-15T12:53:48;101790.03;;;8.09;100.00
68986;BME280;56035;37.534;-122.308;2023-04-15T12:56:15;101796.34;;;8.09;100.00
68986;BME280;56035;37.534;-122.308;2023-04-15T12:58:41;101795.50;;;8.09;100.00
68986;BME280;56035;37.534;-122.308;2023-04-15T13:01:08;101797.19;;;8.10;100.00